Bruno Assis

Scout - Palmeiras
25 Jun 2028
Sunday
Process

Personality

Adaptability (16) Ambition (1) Controversy (1) Loyalty (1) Pressure (8) Professionalism (9) Sportsmanship (19) Temperament (16)

Profile

Coaching Style Democratic
License National A
Determination 7
Man Management 7
Motivating 12
Discipline 6
Job Satisfaction
100%
Fatigue
0%
Role Scout
Wage 110.3K p/w
Contract 14.03.2029

Performance

Behaviour Good
Training Effectiveness
68%
Player Development
65%
Injury Prevention
30%
Tactical Implementation
80%

Recent Events

Assessed a player now
Attended a recruitment meeting 7d ago
Recommended a transfer target 7d ago
Observed a match 7d ago
Attended a recruitment meeting 14d ago
Recommended a transfer target 14d ago
Observed a match 14d ago
Observed a match 21d ago

Currently Monitoring

109
Player Club Status Ability Confidence Watched Last Observed Latest Vote
Xavi Simons Tottenham Active 164 / 152 40% 2 19.06.2028 -
Jayden Danns Bradford City Active 141 / 145 40% 1 19.06.2028 -
Henrik Meister Pisa Active 130 / 124 40% 1 19.06.2028 -
Andrey Santa Cruz Lost 115 / 108 86% 1 06.06.2028 Approve
Morgan Whittaker Bristol Rovers Active 138 / 127 40% 1 01.06.2028 -
Daniel Maldini Atalanta Active 152 / 148 40% 1 01.06.2028 -
Giacomo Raspadori Atalanta Active 151 / 161 40% 2 31.05.2028 -
Zeki Amdouni Luton Town Active 143 / 128 40% 1 31.05.2028 -
Andrey Santos Bolton Wanderers Active 145 / 140 40% 1 31.05.2028 -
Alex Scott Bournemouth Active 159 / 156 40% 1 31.05.2028 -
Jacques Ekomié Wrexham Active 139 / 128 40% 1 31.05.2028 -
Lucca Ceará Active 121 / 124 42% 1 / 1m 07.07.2027 -
Noussair Mazraoui Manchester United Active 162 / 158 40% 2 31.05.2027 -
James Garner Everton Active 150 / 154 40% 1 31.05.2027 -
Manu Koné AS Roma Active 172 / 166 40% 2 30.05.2027 -
Nicolas Jackson Aston Villa Active 150 / 149 40% 1 30.05.2027 -
Chemsdine Talbi Sunderland Active 147 / 155 40% 2 19.05.2027 -
Zé Lucas Cruzeiro Active 125 / 133 30% 1 / 1m 19.05.2027 -
Matheus Araújo Oeste Active 93 / 93 52% 1 / 1m 19.05.2027 -
Jonas Oeste Active 77 / 82 30% 1 / 1m 19.05.2027 -
Gustavo America Mineiro Active 128 / 128 42% 1 / 1m 19.05.2027 -
Kevin Fulham Active 147 / 136 40% 1 17.05.2027 -
Ismaïla Sarr Crystal Palace Active 145 / 134 40% 2 15.05.2027 -
Gabriel Martinelli Arsenal Active 158 / 169 40% 3 15.05.2027 -
Yeremy Pino Crystal Palace Active 148 / 150 40% 1 08.05.2027 -
Iliman N'Diaye Everton Active 164 / 157 40% 1 30.04.2027 -
James Maddison Tottenham Active 157 / 153 40% 1 29.04.2027 -
Boubacar Kamara Aston Villa Active 162 / 174 40% 1 26.04.2027 -
Hugo Ekitiké Liverpool Active 165 / 153 40% 1 17.04.2027 -
David Brooks Bournemouth Active 148 / 128 40% 2 13.04.2027 -
Igor Burnley Active 140 / 156 40% 1 13.04.2027 -
Martin Baturina Como Active 145 / 136 40% 1 13.04.2027 -
Othmane Maamma Watford Active 118 / 123 40% 1 12.04.2027 -
Emiliano Buendía Aston Villa Active 149 / 155 40% 1 12.04.2027 -
Kyle Walker-Peters West Ham United Active 131 / 129 40% 1 11.04.2027 -
Antoni Milambo Brentford Active 139 / 142 40% 1 11.04.2027 -
Harry Wilson Leeds United Active 142 / 139 40% 5 08.04.2027 -
Malcom Al Jazira Active 155 / 141 40% 4 31.03.2027 -
Eddie Nketiah Crystal Palace Active 139 / 134 40% 1 31.03.2027 -
Azor Matusiwa Ipswich Town Active 144 / 135 40% 1 30.03.2027 -
Andreas Schjelderup Benfica Active 146 / 142 40% 2 21.03.2027 -
Yoane Wissa Newcastle United Active 141 / 148 40% 2 21.03.2027 -
Pepê Porto Active 141 / 137 40% 1 21.03.2027 -
Pau Víctor Braga Active 135 / 131 40% 4 19.03.2027 -
Lovro Zvonarek Estrela da Amadora Active 130 / 129 40% 2 14.03.2027 -
Iván Fresneda Sporting CP Active 137 / 150 40% 1 14.03.2027 -
Hwang In-Beom Porto Active 141 / 141 40% 3 12.03.2027 -
Václav Černý Besiktas Active 141 / 122 40% 1 12.03.2027 -
Alberto Costa Porto Active 146 / 151 40% 7 07.03.2027 -
Gianluca Prestianni Benfica Active 130 / 132 40% 2 27.02.2027 -
Samuel Dahl Benfica Active 133 / 130 40% 1 27.02.2027 -
Luís Guilherme Sporting CP Active 129 / 125 40% 2 26.02.2027 -
Florentino Luís Ipswich Town Active 136 / 139 40% 2 26.02.2027 -
Agustín Palavecino Cruz Azul Active 131 / 144 40% 2 16.02.2027 -
Pablo Rosario Porto Active 139 / 128 40% 1 13.02.2027 -
Enzo Barrenechea Benfica Active 154 / 159 40% 11 30.11.2026 -
Geny Sporting CP Active 138 / 158 40% 2 30.11.2026 -
Eduardo Quaresma Sporting CP Active 135 / 130 40% 4 29.11.2026 -
Leandro Barreiro Benfica Active 141 / 135 40% 1 29.11.2026 -
Victor Froholdt Porto Active 155 / 171 40% 5 28.11.2026 -
Hákon Arnar Haraldsson LOSC Lille Active 153 / 151 40% 1 28.11.2026 -
Nordi Mukiele Sunderland Active 139 / 138 40% 2 27.11.2026 -
Brais Méndez RC Lens Active 148 / 146 40% 5 23.11.2026 -
Oscar Al-Taawoun Active 144 / 151 40% 2 23.11.2026 -
Keane Lewis-Potter Brentford Active 142 / 153 40% 1 22.11.2026 -
Rico Henry River Plate Active 137 / 147 40% 6 21.11.2026 -
Lewis Cook Bournemouth Active 147 / 157 40% 4 20.11.2026 -
Sofiane Diop OGC Nice Active 137 / 155 40% 2 18.11.2026 -
Roméo Lavia Chelsea Active 150 / 165 40% 1 18.11.2026 -
Marcos Antonio Sport Recife Active 134 / 135 40% 1 16.11.2026 -
Nico González Newcastle United Active 167 / 146 40% 1 16.11.2026 -
Jake O'Brien Everton Active 143 / 143 40% 1 15.11.2026 -
Ritsu Doan Gamba Osaka Active 154 / 130 40% 2 13.11.2026 -
Tristan Degreef Anderlecht Active 123 / 134 40% 1 13.11.2026 -
Roberto Fernández Braga Active 140 / 154 40% 2 10.11.2026 -
Víctor Gómez Braga Active 133 / 134 40% 2 09.11.2026 -
Adam Wharton Crystal Palace Active 144 / 162 40% 4 08.11.2026 -
Ryan Sessegnon Fulham Active 145 / 130 40% 1 08.11.2026 -
Yunus Akgün Galatasaray Active 138 / 156 40% 1 05.11.2026 -
Joe Gomez Liverpool Active 155 / 143 40% 2 04.11.2026 -
Zeno Debast Sporting CP Active 145 / 153 40% 2 04.11.2026 -
Gabriel Gudmundsson Leeds United Active 140 / 150 40% 1 30.10.2026 -
António Silva Bournemouth Active 146 / 157 40% 2 27.10.2026 -
Ainsley Maitland-Niles Everton Active 144 / 147 40% 1 27.10.2026 -
Ibrahim Sangaré Nottingham Forest Active 148 / 162 40% 1 27.10.2026 -
Pau Torres Aston Villa Active 155 / 135 40% 1 18.10.2026 -
Lucas Paquetá Flamengo Active 137 / 129 40% 1 18.10.2026 -
Sepp van den Berg Brentford Active 152 / 156 40% 1 18.10.2026 -
Nathan Collins Brentford Active 140 / 151 40% 2 14.10.2026 -
Takehiro Tomiyasu Crystal Palace Active 136 / 145 40% 1 14.10.2026 -
Nehuén Pérez Porto Active 144 / 154 40% 1 12.10.2026 -
Amine Adli Bournemouth Active 139 / 148 40% 1 12.10.2026 -
Sergi Altimira Sporting CP Active 135 / 122 40% 1 10.10.2026 -
Lisandro Martínez Ajax Active 153 / 161 40% 2 06.10.2026 -
Martinelli Fluminense Active 137 / 134 40% 1 06.10.2026 -
Cristian Uribe Monaco Active 157 / 134 40% 1 02.10.2026 -
Xaver Schlager Nottingham Forest Active 157 / 160 40% 1 29.09.2026 -
Tomás Araújo Benfica Active 147 / 132 40% 1 28.09.2026 -
Ousmane Diomande Nottingham Forest Active 142 / 155 40% 1 28.09.2026 -
Pedro Porro Tottenham Active 142 / 135 40% 1 23.09.2026 -
Dodi Lukébakio Benfica Active 139 / 156 40% 1 17.09.2026 -
Amin Boudri Los Angeles Football Club Active 114 / 139 40% 1 20.08.2026 -
Malo Gusto Chelsea Active 137 / 132 40% 1 17.08.2026 -
Tino Livramento Newcastle United Active 144 / 156 40% 1 17.08.2026 -
Jorge De Frutos Rayo Vallecano Active 138 / 161 40% 1 07.08.2026 -
Fran García Betis Active 141 / 127 40% 1 06.08.2026 -
Matty Cash Aston Villa Active 148 / 142 40% 1 04.08.2026 -
Mikel Oyarzábal Real Sociedad Active 158 / 151 40% 1 04.08.2026 -
Robin Roefs Sunderland Active 146 / 124 40% 1 02.08.2026 -